Station Historical Data
Daily Summary for July 29, 2017 Units:  English    Metric   Both
« Previous Day
Next Day »
Daily Weekly Monthly Yearly Custom
  High: Low: Average:
Temperature: 79.1 °F 55.9 °F 68.8 °F
Dew Point: 61.1 °F 51.1 °F 56.7 °F
Humidity: 89% 49% 67%
Wind Speed: 15.0mph 0.0mph 2.2mph
Wind Gust: 24.0mph - -
Wind- - ESE
Pressure: 30.01 in 29.92 in -
Precipitation: 0.00 in    
Historical Graphs
 
 
Tabular Data for July 29, 2017
Time Temperature Dew Point Pressure Wind Wind Speed Wind Gust Humidity Rainfall Rate (Hourly)
00:04 59.3 °F 51.7 °F 29.95 in Calm     76% 0.00 in
00:09 59.0 °F 51.4 °F 29.95 in Calm     76% 0.00 in
00:14 58.8 °F 51.2 °F 29.95 in Calm     76% 0.00 in
00:19 58.6 °F 51.4 °F 29.95 in Calm     77% 0.00 in
00:24 58.3 °F 51.1 °F 29.96 in Calm     77% 0.00 in
00:29 58.3 °F 51.1 °F 29.96 in Calm     77% 0.00 in
00:34 58.0 °F 51.2 °F 29.95 in Calm     78% 0.00 in
00:39 57.9 °F 51.4 °F 29.95 in Calm     79% 0.00 in
00:44 57.8 °F 51.3 °F 29.95 in Calm     79% 0.00 in
00:49 57.7 °F 51.2 °F 29.96 in Calm     79% 0.00 in
00:54 57.3 °F 51.2 °F 29.95 in Calm     80% 0.00 in
00:59 57.3 °F 51.5 °F 29.95 in Calm     81% 0.00 in
01:04 57.5 °F 51.7 °F 29.95 in Calm     81% 0.00 in
01:09 57.3 °F 51.5 °F 29.95 in Calm     81% 0.00 in
01:14 57.3 °F 51.5 °F 29.95 in Calm     81% 0.00 in
01:19 57.5 °F 51.7 °F 29.94 in Calm     81% 0.00 in
01:24 58.0 °F 51.9 °F 29.94 in Calm     80% 0.00 in
01:29 58.4 °F 51.9 °F 29.94 in Calm     79% 0.00 in
01:34 58.5 °F 52.0 °F 29.94 in Calm     79% 0.00 in
01:39 58.5 °F 52.0 °F 29.95 in Calm     79% 0.00 in
01:44 58.3 °F 51.8 °F 29.94 in Calm     79% 0.00 in
01:49 58.1 °F 51.6 °F 29.95 in Calm     79% 0.00 in
01:54 57.9 °F 51.8 °F 29.94 in Calm     80% 0.00 in
01:59 57.9 °F 51.8 °F 29.94 in Calm     80% 0.00 in
02:04 57.9 °F 52.1 °F 29.94 in Calm     81% 0.00 in
02:09 57.8 °F 52.0 °F 29.94 in Calm     81% 0.00 in
02:14 57.7 °F 51.9 °F 29.94 in Calm     81% 0.00 in
02:19 57.6 °F 51.8 °F 29.94 in Calm     81% 0.00 in
02:24 57.5 °F 52.0 °F 29.94 in Calm     82% 0.00 in
02:29 57.5 °F 52.0 °F 29.94 in Calm     82% 0.00 in
02:34 57.6 °F 52.1 °F 29.93 in Calm     82% 0.00 in
02:39 57.8 °F 52.3 °F 29.92 in Calm     82% 0.00 in
02:44 58.0 °F 52.2 °F 29.92 in Calm     81% 0.00 in
02:49 58.2 °F 52.4 °F 29.92 in Calm     81% 0.00 in
02:54 58.3 °F 52.5 °F 29.92 in Calm     81% 0.00 in
02:59 58.3 °F 52.5 °F 29.92 in Calm     81% 0.00 in
03:04 58.3 °F 52.5 °F 29.93 in Calm     81% 0.00 in
03:09 58.2 °F 52.4 °F 29.93 in Calm     81% 0.00 in
03:14 58.0 °F 52.2 °F 29.93 in Calm     81% 0.00 in
03:19 57.7 °F 51.9 °F 29.93 in Calm     81% 0.00 in
03:24 57.5 °F 52.0 °F 29.93 in Calm     82% 0.00 in
03:29 57.3 °F 51.9 °F 29.93 in Calm     82% 0.00 in
03:34 57.3 °F 52.2 °F 29.93 in Calm     83% 0.00 in
03:39 57.6 °F 52.1 °F 29.93 in Calm     82% 0.00 in
03:44 57.6 °F 52.1 °F 29.93 in Calm     82% 0.00 in
03:49 57.3 °F 52.2 °F 29.93 in Calm     83% 0.00 in
03:54 57.0 °F 51.9 °F 29.93 in Calm     83% 0.00 in
03:59 56.8 °F 52.0 °F 29.93 in Calm     84% 0.00 in
04:04 56.6 °F 51.8 °F 29.93 in Calm     84% 0.00 in
04:09 56.6 °F 51.8 °F 29.93 in Calm     84% 0.00 in
04:14 56.6 °F 52.1 °F 29.93 in Calm     85% 0.00 in
04:19 56.4 °F 51.9 °F 29.93 in Calm     85% 0.00 in
04:24 56.2 °F 51.7 °F 29.93 in Calm     85% 0.00 in
04:29 56.0 °F 51.6 °F 29.93 in Calm     85% 0.00 in
04:34 56.0 °F 51.9 °F 29.93 in Calm     86% 0.00 in
04:39 56.0 °F 51.9 °F 29.93 in Calm     86% 0.00 in
04:44 55.9 °F 51.8 °F 29.93 in Calm     86% 0.00 in
04:49 56.0 °F 51.9 °F 29.93 in Calm     86% 0.00 in
04:54 56.4 °F 52.3 °F 29.93 in Calm     86% 0.00 in
04:59 56.7 °F 52.6 °F 29.93 in Calm     86% 0.00 in
05:04 56.7 °F 52.6 °F 29.93 in Calm     86% 0.00 in
05:09 56.7 °F 52.2 °F 29.93 in Calm     85% 0.00 in
05:19 56.4 °F 52.3 °F 29.93 in Calm     86% 0.00 in
05:24 56.5 °F 52.4 °F 29.93 in Calm     86% 0.00 in
05:29 56.4 °F 52.3 °F 29.94 in Calm     86% 0.00 in
05:34 56.3 °F 52.5 °F 29.94 in Calm     87% 0.00 in
05:39 56.2 °F 52.4 °F 29.94 in Calm     87% 0.00 in
05:44 55.9 °F 52.1 °F 29.94 in Calm     87% 0.00 in
05:49 55.9 °F 52.1 °F 29.94 in Calm     87% 0.00 in
05:54 55.9 °F 52.4 °F 29.94 in Calm     88% 0.00 in
05:59 56.0 °F 52.5 °F 29.94 in Calm     88% 0.00 in
06:04 56.2 °F 52.7 °F 29.95 in Calm     88% 0.00 in
06:09 56.5 °F 53.3 °F 29.95 in Calm     89% 0.00 in
06:14 56.9 °F 53.7 °F 29.95 in Calm     89% 0.00 in
06:19 57.3 °F 54.1 °F 29.95 in Calm     89% 0.00 in
06:24 57.5 °F 54.3 °F 29.95 in Calm   2.0 mph 89% 0.00 in
06:29 57.8 °F 54.6 °F 29.95 in Calm   2.0 mph 89% 0.00 in
06:34 58.0 °F 54.8 °F 29.95 in Calm   1.0 mph 89% 0.00 in
06:39 58.4 °F 55.2 °F 29.96 in Calm   2.0 mph 89% 0.00 in
06:44 58.7 °F 55.5 °F 29.96 in Calm   2.0 mph 89% 0.00 in
06:49 58.9 °F 55.7 °F 29.96 in Calm     89% 0.00 in
06:54 59.1 °F 55.9 °F 29.96 in Calm     89% 0.00 in
06:59 59.4 °F 56.2 °F 29.97 in Calm     89% 0.00 in
07:04 59.6 °F 56.4 °F 29.97 in Calm     89% 0.00 in
07:09 59.8 °F 56.6 °F 29.97 in Calm     89% 0.00 in
07:14 60.1 °F 56.8 °F 29.97 in Calm     89% 0.00 in
07:19 60.4 °F 56.8 °F 29.97 in Calm     88% 0.00 in
07:24 60.6 °F 57.0 °F 29.97 in Calm     88% 0.00 in
07:29 60.9 °F 57.3 °F 29.97 in Calm   4.0 mph 88% 0.00 in
07:34 61.2 °F 57.6 °F 29.98 in NNW 1.0 mph 4.0 mph 88% 0.00 in
07:39 61.4 °F 57.8 °F 29.98 in NNE 2.0 mph 3.0 mph 88% 0.00 in
07:44 61.6 °F 57.7 °F 29.98 in NNE 2.0 mph 3.0 mph 87% 0.00 in
07:49 62.1 °F 58.2 °F 29.98 in NNE 1.0 mph 3.0 mph 87% 0.00 in
07:54 62.9 °F 59.0 °F 29.98 in NNE 1.0 mph 3.0 mph 87% 0.00 in
07:59 63.4 °F 59.1 °F 29.98 in NNE 2.0 mph 4.0 mph 86% 0.00 in
08:09 63.9 °F 59.3 °F 29.99 in NNE 2.0 mph 6.0 mph 85% 0.00 in
08:14 63.9 °F 59.0 °F 29.99 in NE 1.0 mph 6.0 mph 84% 0.00 in
08:24 64.0 °F 59.4 °F 29.99 in North 1.0 mph 6.0 mph 85% 0.00 in
08:29 64.5 °F 59.6 °F 29.99 in North 1.0 mph 4.0 mph 84% 0.00 in
08:34 65.1 °F 59.8 °F 29.99 in NNE 2.0 mph 5.0 mph 83% 0.00 in
08:39 66.2 °F 60.9 °F 29.99 in NNE 2.0 mph 5.0 mph 83% 0.00 in
08:44 66.9 °F 60.5 °F 29.99 in NNE 2.0 mph 6.0 mph 80% 0.00 in
08:49 67.3 °F 60.9 °F 29.99 in NNE 2.0 mph 10.0 mph 80% 0.00 in
08:54 67.9 °F 61.1 °F 29.99 in NE 3.0 mph 9.0 mph 79% 0.00 in
09:04 68.3 °F 60.1 °F 29.99 in North 4.0 mph 8.0 mph 75% 0.00 in
09:09 69.0 °F 60.4 °F 29.99 in Calm   4.0 mph 74% 0.00 in
09:14 69.3 °F 59.1 °F 30.00 in NE 4.0 mph 10.0 mph 70% 0.00 in
09:19 69.8 °F 60.4 °F 30.00 in NE 3.0 mph 10.0 mph 72% 0.00 in
09:24 70.3 °F 60.4 °F 30.00 in NE 4.0 mph 9.0 mph 71% 0.00 in
09:29 71.0 °F 60.3 °F 30.00 in NE 3.0 mph 9.0 mph 69% 0.00 in
09:34 71.4 °F 59.9 °F 30.00 in NNE 5.0 mph 10.0 mph 67% 0.00 in
09:39 71.7 °F 58.9 °F 30.00 in NNE 4.0 mph 10.0 mph 64% 0.00 in
09:44 72.0 °F 59.2 °F 30.00 in NNE 4.0 mph 8.0 mph 64% 0.00 in
09:49 71.8 °F 57.2 °F 30.00 in NNE 4.0 mph 15.0 mph 60% 0.00 in
09:54 72.3 °F 57.6 °F 30.00 in NE 4.0 mph 16.0 mph 60% 0.00 in
09:59 72.6 °F 57.4 °F 30.00 in NE 6.0 mph 16.0 mph 59% 0.00 in
10:04 72.7 °F 56.6 °F 30.00 in ESE 11.0 mph 13.0 mph 57% 0.00 in
10:09 72.7 °F 56.6 °F 30.00 in NE 4.0 mph 15.0 mph 57% 0.00 in
10:14 73.1 °F 57.4 °F 30.00 in NNW 5.0 mph 11.0 mph 58% 0.00 in
10:19 73.5 °F 58.8 °F 30.00 in NE 5.0 mph 11.0 mph 60% 0.00 in
10:24 73.8 °F 57.6 °F 30.00 in NE 5.0 mph 14.0 mph 57% 0.00 in
10:29 73.5 °F 58.3 °F 30.01 in NE 6.0 mph 14.0 mph 59% 0.00 in
10:34 73.6 °F 58.4 °F 30.00 in North 3.0 mph 13.0 mph 59% 0.00 in
10:39 73.5 °F 57.8 °F 30.01 in NE 13.0 mph 17.0 mph 58% 0.00 in
10:44 73.8 °F 57.1 °F 30.01 in NE 9.0 mph 13.0 mph 56% 0.00 in
10:49 74.0 °F 56.8 °F 30.01 in NE 8.0 mph 24.0 mph 55% 0.00 in
10:54 74.0 °F 56.3 °F 30.01 in NE 9.0 mph 24.0 mph 54% 0.00 in
10:59 74.2 °F 55.4 °F 30.01 in ENE 9.0 mph 20.0 mph 52% 0.00 in
11:04 73.9 °F 56.2 °F 30.01 in NE 3.0 mph 17.0 mph 54% 0.00 in
11:09 74.0 °F 55.8 °F 30.01 in NE 5.0 mph 13.0 mph 53% 0.00 in
11:14 73.6 °F 55.9 °F 30.01 in NE 6.0 mph 17.0 mph 54% 0.00 in
11:19 73.0 °F 56.4 °F 30.01 in NE 4.0 mph 9.0 mph 56% 0.00 in
11:24 73.5 °F 55.8 °F 30.01 in NNE 3.0 mph 11.0 mph 54% 0.00 in
11:29 74.2 °F 55.4 °F 30.01 in ENE 10.0 mph 15.0 mph 52% 0.00 in
11:34 74.7 °F 55.9 °F 30.01 in NE 7.0 mph 15.0 mph 52% 0.00 in
11:39 75.5 °F 58.2 °F 30.01 in NE 6.0 mph 14.0 mph 55% 0.00 in
11:44 75.5 °F 55.6 °F 30.01 in NE 5.0 mph 12.0 mph 50% 0.00 in
11:49 75.7 °F 57.9 °F 30.00 in NNE 4.0 mph 12.0 mph 54% 0.00 in
11:54 75.2 °F 55.3 °F 30.00 in ENE 11.0 mph 13.0 mph 50% 0.00 in
11:59 74.8 °F 56.5 °F 30.01 in NE 3.0 mph 13.0 mph 53% 0.00 in
12:04 74.7 °F 55.9 °F 30.01 in NE 6.0 mph 18.0 mph 52% 0.00 in
12:09 74.6 °F 54.7 °F 30.00 in NE 2.0 mph 17.0 mph 50% 0.00 in
12:14 74.7 °F 56.4 °F 30.00 in NE 4.0 mph 16.0 mph 53% 0.00 in
12:19 76.1 °F 57.2 °F 30.00 in NE 7.0 mph 10.0 mph 52% 0.00 in
12:24 76.1 °F 57.7 °F 30.00 in North 3.0 mph 15.0 mph 53% 0.00 in
12:29 76.6 °F 56.6 °F 30.00 in NE 4.0 mph 14.0 mph 50% 0.00 in
12:34 77.3 °F 57.2 °F 30.00 in NE 4.0 mph 14.0 mph 50% 0.00 in
12:39 77.0 °F 57.5 °F 30.00 in NE 5.0 mph 15.0 mph 51% 0.00 in
12:44 75.6 °F 58.8 °F 30.00 in NE 5.0 mph 15.0 mph 56% 0.00 in
12:49 76.7 °F 58.3 °F 30.00 in NNE 4.0 mph 10.0 mph 53% 0.00 in
12:54 76.0 °F 57.1 °F 30.00 in NNE 4.0 mph 11.0 mph 52% 0.00 in
12:59 76.9 °F 59.0 °F 30.00 in NW 4.0 mph 8.0 mph 54% 0.00 in
13:04 77.1 °F 57.0 °F 30.00 in NNE 4.0 mph 16.0 mph 50% 0.00 in
13:09 76.2 °F 56.2 °F 29.99 in NE 5.0 mph 16.0 mph 50% 0.00 in
13:14 76.7 °F 58.8 °F 29.99 in NE 6.0 mph 16.0 mph 54% 0.00 in
13:19 76.7 °F 56.1 °F 29.99 in NE 8.0 mph 17.0 mph 49% 0.00 in
13:24 76.6 °F 57.1 °F 29.99 in NNE 6.0 mph 14.0 mph 51% 0.00 in
13:29 76.6 °F 58.2 °F 29.99 in North 3.0 mph 14.0 mph 53% 0.00 in
13:34 77.4 °F 57.3 °F 29.99 in NE 5.0 mph 14.0 mph 50% 0.00 in
13:39 76.6 °F 56.6 °F 29.99 in East 5.0 mph 12.0 mph 50% 0.00 in
13:44 77.3 °F 58.8 °F 29.99 in NNW 3.0 mph 13.0 mph 53% 0.00 in
13:49 76.5 °F 56.5 °F 30.00 in NNE 2.0 mph 9.0 mph 50% 0.00 in
13:54 76.9 °F 57.4 °F 30.00 in NNE 5.0 mph 12.0 mph 51% 0.00 in
13:59 76.1 °F 56.7 °F 30.00 in NE 4.0 mph 14.0 mph 51% 0.00 in
14:04 76.2 °F 56.7 °F 30.00 in ENE 4.0 mph 15.0 mph 51% 0.00 in
14:09 76.4 °F 56.9 °F 30.00 in ENE 8.0 mph 15.0 mph 51% 0.00 in
14:14 76.6 °F 57.1 °F 30.00 in ENE 11.0 mph 14.0 mph 51% 0.00 in
14:19 77.1 °F 57.6 °F 30.00 in NNE 3.0 mph 13.0 mph 51% 0.00 in
14:24 76.4 °F 58.0 °F 30.00 in NE 4.0 mph 13.0 mph 53% 0.00 in
14:29 77.2 °F 59.3 °F 30.00 in NNE 3.0 mph 11.0 mph 54% 0.00 in
14:34 76.4 °F 56.4 °F 30.00 in NE 4.0 mph 11.0 mph 50% 0.00 in
14:39 76.1 °F 56.7 °F 30.00 in NE 5.0 mph 11.0 mph 51% 0.00 in
14:44 76.4 °F 59.0 °F 30.00 in NNW 2.0 mph 12.0 mph 55% 0.00 in
14:49 77.3 °F 57.8 °F 30.00 in North 4.0 mph 9.0 mph 51% 0.00 in
14:54 77.2 °F 57.1 °F 30.00 in NNE 4.0 mph 11.0 mph 50% 0.00 in
14:59 77.2 °F 58.7 °F 30.00 in NW 6.0 mph 10.0 mph 53% 0.00 in
15:04 77.7 °F 59.7 °F 29.99 in NNW 5.0 mph 14.0 mph 54% 0.00 in
15:09 77.9 °F 58.9 °F 29.99 in North 6.0 mph 10.0 mph 52% 0.00 in
15:14 77.8 °F 59.3 °F 29.99 in NE 12.0 mph 12.0 mph 53% 0.00 in
15:19 77.7 °F 59.2 °F 29.99 in ENE 8.0 mph 17.0 mph 53% 0.00 in
15:24 78.1 °F 59.0 °F 29.99 in NE 5.0 mph 17.0 mph 52% 0.00 in
15:29 78.3 °F 59.2 °F 29.99 in NE 4.0 mph 8.0 mph 52% 0.00 in
15:34 77.3 °F 56.6 °F 29.99 in ENE 5.0 mph 13.0 mph 49% 0.00 in
15:39 77.1 °F 57.6 °F 29.99 in East 15.0 mph 15.0 mph 51% 0.00 in
15:44 77.2 °F 57.7 °F 29.98 in NE 6.0 mph 13.0 mph 51% 0.00 in
15:49 78.1 °F 59.0 °F 29.99 in NNW 4.0 mph 12.0 mph 52% 0.00 in
15:54 78.2 °F 58.0 °F 29.99 in NE 5.0 mph 13.0 mph 50% 0.00 in
15:59 77.7 °F 58.1 °F 29.98 in NE 5.0 mph 13.0 mph 51% 0.00 in
16:04 78.2 °F 58.6 °F 29.98 in NNW 4.0 mph 10.0 mph 51% 0.00 in
16:09 78.0 °F 59.5 °F 29.98 in NNE 7.0 mph 10.0 mph 53% 0.00 in
16:14 78.1 °F 59.6 °F 29.98 in NE 4.0 mph 13.0 mph 53% 0.00 in
16:19 78.8 °F 59.1 °F 29.98 in North 3.0 mph 8.0 mph 51% 0.00 in
16:24 79.1 °F 58.9 °F 29.98 in North 3.0 mph 10.0 mph 50% 0.00 in
16:29 78.3 °F 59.2 °F 29.99 in NE 4.0 mph 10.0 mph 52% 0.00 in
16:34 78.4 °F 58.8 °F 29.98 in NNE 5.0 mph 10.0 mph 51% 0.00 in
16:39 79.0 °F 60.9 °F 29.98 in North 3.0 mph 9.0 mph 54% 0.00 in
16:44 79.0 °F 59.3 °F 29.98 in NNE 5.0 mph 12.0 mph 51% 0.00 in
16:49 78.8 °F 58.0 °F 29.99 in NE 4.0 mph 12.0 mph 49% 0.00 in
16:54 78.4 °F 59.9 °F 29.99 in NE 5.0 mph 11.0 mph 53% 0.00 in
16:59 78.6 °F 58.4 °F 29.99 in NE 2.0 mph 13.0 mph 50% 0.00 in
17:04 78.7 °F 59.6 °F 29.98 in ENE 3.0 mph 9.0 mph 52% 0.00 in
17:09 78.5 °F 59.4 °F 29.98 in NE 6.0 mph 8.0 mph 52% 0.00 in
17:14 78.5 °F 58.9 °F 29.99 in NNW 4.0 mph 9.0 mph 51% 0.00 in
17:19 78.8 °F 59.1 °F 29.99 in North 3.0 mph 9.0 mph 51% 0.00 in
17:24 78.5 °F 59.4 °F 29.99 in NNE 3.0 mph 8.0 mph 52% 0.00 in
17:29 78.5 °F 59.4 °F 29.99 in NE 3.0 mph 9.0 mph 52% 0.00 in
17:34 78.7 °F 59.0 °F 29.99 in NNE 3.0 mph 9.0 mph 51% 0.00 in
17:39 79.0 °F 59.3 °F 29.99 in NNW 3.0 mph 8.0 mph 51% 0.00 in
17:44 78.3 °F 58.1 °F 29.99 in NNE 4.0 mph 10.0 mph 50% 0.00 in
17:49 78.4 °F 60.4 °F 29.98 in NE 3.0 mph 10.0 mph 54% 0.00 in
17:54 78.5 °F 59.4 °F 29.98 in NNE 1.0 mph 7.0 mph 52% 0.00 in
17:59 78.4 °F 59.3 °F 29.98 in NNW 2.0 mph 9.0 mph 52% 0.00 in
18:04 78.0 °F 58.9 °F 29.98 in North 3.0 mph 7.0 mph 52% 0.00 in
18:09 77.6 °F 59.1 °F 29.98 in NE 4.0 mph 7.0 mph 53% 0.00 in
18:14 78.0 °F 59.5 °F 29.98 in North 4.0 mph 9.0 mph 53% 0.00 in
18:19 77.6 °F 59.1 °F 29.98 in North 3.0 mph 9.0 mph 53% 0.00 in
18:24 77.3 °F 58.8 °F 29.98 in NNW 4.0 mph 9.0 mph 53% 0.00 in
18:29 77.3 °F 59.9 °F 29.98 in North 3.0 mph 8.0 mph 55% 0.00 in
18:34 77.3 °F 59.9 °F 29.98 in North 3.0 mph 6.0 mph 55% 0.00 in
18:39 77.0 °F 59.1 °F 29.98 in NNE 2.0 mph 11.0 mph 54% 0.00 in
18:44 76.9 °F 59.5 °F 29.98 in NW 3.0 mph 5.0 mph 55% 0.00 in
18:49 76.9 °F 59.5 °F 29.98 in NNW 2.0 mph 5.0 mph 55% 0.00 in
18:54 76.6 °F 59.7 °F 29.98 in NNW 3.0 mph 8.0 mph 56% 0.00 in
18:59 76.4 °F 59.5 °F 29.98 in NNW 1.0 mph 7.0 mph 56% 0.00 in
19:04 76.4 °F 59.0 °F 29.98 in North 4.0 mph 8.0 mph 55% 0.00 in
19:09 76.2 °F 58.9 °F 29.98 in North 1.0 mph 7.0 mph 55% 0.00 in
19:14 76.2 °F 58.3 °F 29.98 in NNW 5.0 mph 8.0 mph 54% 0.00 in
19:19 76.1 °F 59.3 °F 29.98 in NNW 3.0 mph 8.0 mph 56% 0.00 in
19:24 76.1 °F 58.8 °F 29.98 in NNW 2.0 mph 5.0 mph 55% 0.00 in
19:29 75.9 °F 58.6 °F 29.98 in NW 2.0 mph 5.0 mph 55% 0.00 in
19:34 75.6 °F 58.8 °F 29.98 in NNW 3.0 mph 5.0 mph 56% 0.00 in
19:39 75.3 °F 58.5 °F 29.99 in Calm   4.0 mph 56% 0.00 in
19:44 75.1 °F 59.3 °F 29.98 in Calm     58% 0.00 in
19:49 74.8 °F 58.5 °F 29.98 in Calm   2.0 mph 57% 0.00 in
19:54 74.6 °F 59.3 °F 29.98 in Calm   2.0 mph 59% 0.00 in
19:59 74.5 °F 58.8 °F 29.98 in Calm   2.0 mph 58% 0.00 in
20:04 74.4 °F 58.7 °F 29.99 in Calm   3.0 mph 58% 0.00 in
20:09 74.4 °F 59.1 °F 29.99 in Calm     59% 0.00 in
20:14 74.2 °F 58.9 °F 29.98 in Calm     59% 0.00 in
20:19 74.0 °F 59.2 °F 29.98 in Calm     60% 0.00 in
20:24 73.7 °F 58.5 °F 29.98 in Calm   2.0 mph 59% 0.00 in
20:29 73.5 °F 58.8 °F 29.98 in Calm   2.0 mph 60% 0.00 in
20:34 73.6 °F 58.9 °F 29.98 in Calm   2.0 mph 60% 0.00 in
20:39 73.4 °F 59.1 °F 29.98 in Calm     61% 0.00 in
20:44 73.2 °F 58.9 °F 29.98 in Calm     61% 0.00 in
20:49 73.0 °F 58.8 °F 29.98 in Calm     61% 0.00 in
20:54 72.8 °F 58.6 °F 29.98 in Calm     61% 0.00 in
20:59 72.7 °F 58.9 °F 29.98 in Calm     62% 0.00 in
21:04 72.8 °F 59.0 °F 29.98 in Calm     62% 0.00 in
21:09 72.8 °F 59.0 °F 29.99 in Calm     62% 0.00 in
21:14 72.8 °F 59.0 °F 29.99 in Calm     62% 0.00 in
21:19 72.8 °F 59.5 °F 29.99 in Calm   4.0 mph 63% 0.00 in
21:24 72.7 °F 59.4 °F 29.99 in Calm     63% 0.00 in
21:29 72.7 °F 59.4 °F 29.99 in Calm     63% 0.00 in
21:34 72.6 °F 59.3 °F 29.99 in Calm     63% 0.00 in
21:39 72.3 °F 59.4 °F 29.99 in Calm     64% 0.00 in
21:44 72.1 °F 59.7 °F 29.99 in Calm     65% 0.00 in
21:49 72.1 °F 59.7 °F 29.99 in Calm     65% 0.00 in
21:54 72.1 °F 59.7 °F 30.00 in Calm     65% 0.00 in
21:59 71.9 °F 59.5 °F 30.00 in Calm     65% 0.00 in
22:04 71.5 °F 59.5 °F 30.00 in Calm     66% 0.00 in
22:09 71.0 °F 59.5 °F 30.00 in Calm     67% 0.00 in
22:14 70.6 °F 59.5 °F 30.00 in Calm     68% 0.00 in
22:19 70.6 °F 59.5 °F 30.00 in Calm     68% 0.00 in
22:24 70.2 °F 59.6 °F 30.00 in Calm     69% 0.00 in
22:29 70.0 °F 59.8 °F 30.00 in Calm     70% 0.00 in
22:34 69.9 °F 59.7 °F 30.00 in Calm     70% 0.00 in
22:39 70.2 °F 60.0 °F 29.99 in Calm     70% 0.00 in
22:44 70.2 °F 59.6 °F 29.99 in Calm     69% 0.00 in
22:49 69.9 °F 59.7 °F 29.99 in Calm     70% 0.00 in
22:54 69.6 °F 59.8 °F 30.00 in Calm     71% 0.00 in
22:59 68.9 °F 59.5 °F 29.99 in Calm     72% 0.00 in
23:04 68.5 °F 59.5 °F 29.99 in Calm     73% 0.00 in
23:09 68.3 °F 59.3 °F 29.99 in Calm     73% 0.00 in
23:14 68.0 °F 59.4 °F 29.99 in Calm     74% 0.00 in
23:19 67.9 °F 59.3 °F 29.99 in Calm     74% 0.00 in
23:24 67.9 °F 59.3 °F 29.99 in Calm     74% 0.00 in
23:29 68.1 °F 59.1 °F 29.99 in Calm     73% 0.00 in
23:34 68.4 °F 59.0 °F 29.99 in Calm   2.0 mph 72% 0.00 in
23:39 68.6 °F 59.2 °F 29.99 in Calm     72% 0.00 in
23:49 68.5 °F 59.1 °F 30.00 in Calm     72% 0.00 in
23:54 68.5 °F 59.1 °F 30.00 in Calm   3.0 mph 72% 0.00 in
23:59 68.7 °F 59.3 °F 30.00 in Calm   4.0 mph 72% 0.00 in
Buffalo, New York, USA
Compliments of Weather Underground - 2.5 mb